createdAt,value
2018-12-19T00:00:08.004Z,100550.69
2018-12-19T00:05:10.389Z,100531.25
2018-12-19T00:10:13.238Z,100537.73
2018-12-19T00:15:15.546Z,100523.41
2018-12-19T00:20:18.291Z,100533.52
2018-12-19T00:25:21.433Z,100540.12
2018-12-19T00:30:24.108Z,100534.86
2018-12-19T00:35:26.865Z,100527.89
2018-12-19T00:40:29.528Z,100531.55
2018-12-19T00:45:31.987Z,100521.48
2018-12-19T00:50:34.664Z,100504.77
2018-12-19T00:55:37.050Z,100501.69
2018-12-19T01:00:39.642Z,100494.13
2018-12-19T01:05:42.298Z,100499.78
2018-12-19T01:10:44.952Z,100501.19
2018-12-19T01:15:47.591Z,100506.27
2018-12-19T01:20:49.930Z,100508.57
2018-12-19T01:25:52.579Z,100484.87
2018-12-19T01:30:55.046Z,100502.88
2018-12-19T01:35:57.509Z,100515.52
2018-12-19T01:41:00.867Z,100516.83
2018-12-19T01:46:03.728Z,100513.70
2018-12-19T01:51:06.226Z,100522.54
2018-12-19T01:56:08.758Z,100508.48
2018-12-19T02:01:11.124Z,100508.86
2018-12-19T02:06:14.567Z,100497.97
2018-12-19T02:11:17.050Z,100484.37
2018-12-19T02:16:19.900Z,100490.50
2018-12-19T02:21:22.295Z,100481.83
2018-12-19T02:26:25.152Z,100461.39
2018-12-19T02:31:27.562Z,100487.78
2018-12-19T02:36:30.290Z,100484.87
2018-12-19T02:41:32.819Z,100480.44
2018-12-19T02:46:35.930Z,100471.27
2018-12-19T02:51:38.344Z,100468.23
2018-12-19T02:56:40.863Z,100474.41
2018-12-19T03:01:43.197Z,100468.61
2018-12-19T03:06:45.553Z,100480.11
2018-12-19T03:11:48.378Z,100463.94
2018-12-19T03:16:50.795Z,100454.14
2018-12-19T03:21:53.378Z,100459.08
2018-12-19T03:26:55.671Z,100464.66
2018-12-19T03:31:58.553Z,100455.81
2018-12-19T03:37:00.877Z,100468.59
2018-12-19T03:42:03.337Z,100466.42
2018-12-19T03:47:05.670Z,100463.39
2018-12-19T03:52:08.677Z,100454.55
2018-12-19T03:57:11.428Z,100461.25
2018-12-19T04:02:13.969Z,100460.34
2018-12-19T04:07:16.384Z,100459.89
2018-12-19T04:12:18.962Z,100453.32
2018-12-19T04:17:21.299Z,100439.18
2018-12-19T04:22:26.297Z,100431.23
2018-12-19T04:27:28.785Z,100454.05
2018-12-19T04:32:34.238Z,100449.34
2018-12-19T04:37:36.520Z,100437.95
2018-12-19T04:42:39.105Z,100444.48
2018-12-19T04:47:41.792Z,100431.89
2018-12-19T04:52:44.367Z,100435.29
2018-12-19T04:57:46.711Z,100427.85
2018-12-19T05:02:49.407Z,100433.11
2018-12-19T05:07:53.511Z,100424.81
2018-12-19T05:12:55.833Z,100429.66
2018-12-19T05:17:58.129Z,100426.53
2018-12-19T05:23:00.573Z,100429.94
2018-12-19T05:28:02.880Z,100434.88
2018-12-19T05:33:05.665Z,100435.73
2018-12-19T05:38:08.145Z,100440.44
2018-12-19T05:43:10.676Z,100449.98
2018-12-19T05:48:13.411Z,100442.94
2018-12-19T05:53:15.991Z,100435.02
2018-12-19T05:58:18.534Z,100435.51
2018-12-19T06:03:20.944Z,100435.06
2018-12-19T06:08:23.571Z,100429.34
2018-12-19T06:13:25.926Z,100431.13
2018-12-19T06:18:28.536Z,100444.31
2018-12-19T06:23:31.201Z,100440.27
2018-12-19T06:28:33.738Z,100445.02
2018-12-19T06:33:36.876Z,100437.55
2018-12-19T06:38:39.542Z,100434.52
2018-12-19T06:43:43.004Z,100436.78
2018-12-19T06:48:45.589Z,100438.82
2018-12-19T06:53:48.079Z,100430.16
2018-12-19T06:58:50.426Z,100416.78
2018-12-19T07:03:53.422Z,100408.89
2018-12-19T07:08:55.897Z,100428.66
2018-12-19T07:13:58.454Z,100443.95
2018-12-19T07:19:00.826Z,100454.81
2018-12-19T07:24:03.370Z,100453.55
2018-12-19T07:29:05.719Z,100454.37
2018-12-19T07:34:08.213Z,100447.73
2018-12-19T07:39:10.675Z,100450.23
2018-12-19T07:44:13.042Z,100443.38
2018-12-19T07:49:15.419Z,100458.48
2018-12-19T07:54:17.876Z,100452.66
2018-12-19T07:59:20.461Z,100466.72
2018-12-19T08:04:23.195Z,100458.91
2018-12-19T08:09:25.510Z,100455.45
2018-12-19T08:14:27.861Z,100449.52
2018-12-19T08:19:30.163Z,100452.39
2018-12-19T08:24:32.567Z,100458.59
2018-12-19T08:29:34.928Z,100457.86
2018-12-19T08:34:37.300Z,100467.39
2018-12-19T08:39:39.920Z,100475.14
2018-12-19T08:44:42.688Z,100483.80
2018-12-19T08:49:45.418Z,100489.06
2018-12-19T08:54:47.707Z,100491.03
2018-12-19T08:59:50.543Z,100497.06
2018-12-19T09:04:52.931Z,100489.92
2018-12-19T09:09:55.702Z,100490.53
2018-12-19T09:14:58.310Z,100485.01
2018-12-19T09:20:01.376Z,100485.83
2018-12-19T09:25:03.950Z,100486.99
2018-12-19T09:30:07.633Z,100508.00
2018-12-19T09:35:10.492Z,100507.95
2018-12-19T09:40:13.228Z,100505.11
2018-12-19T09:45:15.885Z,100497.03
2018-12-19T09:50:18.513Z,100505.34
2018-12-19T09:55:20.953Z,100502.55
2018-12-19T10:00:26.893Z,100497.47
2018-12-19T10:05:29.552Z,100496.44
2018-12-19T10:10:32.021Z,100493.97
2018-12-19T10:15:34.773Z,100501.95
2018-12-19T10:20:37.649Z,100493.36
2018-12-19T10:25:40.305Z,100492.05
2018-12-19T10:30:47.170Z,100482.98
2018-12-19T10:35:50.219Z,100474.10
2018-12-19T10:40:53.529Z,100484.64
2018-12-19T10:45:56.747Z,100480.34
2018-12-19T10:50:59.225Z,100483.66
2018-12-19T10:56:02.915Z,100475.20
2018-12-19T11:01:05.815Z,100468.03
2018-12-19T11:06:08.925Z,100453.53
2018-12-19T11:11:11.643Z,100462.59
2018-12-19T11:16:14.448Z,100460.69
2018-12-19T11:21:16.933Z,100454.71
2018-12-19T11:26:19.429Z,100458.55
2018-12-19T11:31:21.832Z,100452.50
2018-12-19T11:36:24.527Z,100451.42
2018-12-19T11:41:27.743Z,100455.45
2018-12-19T11:46:31.735Z,100446.60
2018-12-19T11:51:34.363Z,100427.69
2018-12-19T11:56:36.955Z,100429.28
2018-12-19T12:01:41.532Z,100438.44
2018-12-19T12:06:44.220Z,100433.82
2018-12-19T12:11:46.613Z,100424.13
2018-12-19T12:16:49.048Z,100421.30
2018-12-19T12:21:51.595Z,100417.73
2018-12-19T12:26:54.096Z,100410.74
2018-12-19T12:31:56.817Z,100403.72
2018-12-19T12:36:59.721Z,100389.72
2018-12-19T12:42:02.348Z,100391.39
2018-12-19T12:47:04.778Z,100397.09
2018-12-19T12:52:07.481Z,100392.17
2018-12-19T12:57:10.143Z,100380.30
2018-12-19T13:02:13.134Z,100381.14
2018-12-19T13:07:15.676Z,100376.73
2018-12-19T13:12:18.282Z,100360.91
2018-12-19T13:17:20.947Z,100353.64
2018-12-19T13:22:24.027Z,100358.97
2018-12-19T13:27:33.021Z,100353.09
2018-12-19T13:32:35.563Z,100351.80
2018-12-19T13:37:37.959Z,100341.87
2018-12-19T13:42:40.454Z,100347.62
2018-12-19T13:47:42.942Z,100348.53
2018-12-19T13:52:45.678Z,100360.70
2018-12-19T13:57:48.059Z,100356.91
2018-12-19T14:02:50.646Z,100360.58
2018-12-19T14:07:53.153Z,100354.90
2018-12-19T14:12:56.125Z,100355.22
2018-12-19T14:17:59.230Z,100344.27
2018-12-19T14:23:02.734Z,100348.16
2018-12-19T14:28:05.268Z,100335.57
2018-12-19T14:33:08.339Z,100322.13
2018-12-19T14:38:11.641Z,100309.33
2018-12-19T14:43:14.158Z,100306.06
2018-12-19T14:48:16.494Z,100312.48
2018-12-19T14:53:19.223Z,100312.75
2018-12-19T14:58:22.582Z,100319.86
2018-12-19T15:03:25.078Z,100335.34
2018-12-19T15:08:27.515Z,100363.05
2018-12-19T15:13:30.222Z,100351.80
2018-12-19T15:18:32.565Z,100352.45
2018-12-19T15:23:34.983Z,100336.20
2018-12-19T15:28:37.376Z,100330.84
2018-12-19T15:33:39.767Z,100331.27
2018-12-19T15:38:42.174Z,100341.69
2018-12-19T15:43:44.755Z,100331.41
2018-12-19T15:48:47.226Z,100340.27
2018-12-19T15:53:50.433Z,100346.13
2018-12-19T15:58:53.040Z,100345.34
2018-12-19T16:03:55.415Z,100347.70
2018-12-19T16:08:57.798Z,100346.98
2018-12-19T16:14:00.491Z,100356.33
2018-12-19T16:19:03.116Z,100354.45
2018-12-19T16:24:05.418Z,100360.11
2018-12-19T16:29:07.994Z,100356.07
2018-12-19T16:34:10.584Z,100368.08
2018-12-19T16:39:12.959Z,100371.59
2018-12-19T16:44:15.433Z,100366.89
2018-12-19T16:49:18.243Z,100373.28
2018-12-19T16:54:20.791Z,100365.25
2018-12-19T16:59:23.215Z,100349.10
2018-12-19T17:04:25.563Z,100348.22
2018-12-19T17:09:27.996Z,100348.64
2018-12-19T17:14:30.397Z,100348.30
2018-12-19T17:19:33.095Z,100340.48
2018-12-19T17:24:39.885Z,100343.62
2018-12-19T17:29:42.308Z,100349.05
2018-12-19T17:34:44.653Z,100330.98
2018-12-19T17:39:46.976Z,100325.20
2018-12-19T17:44:49.397Z,100329.40
2018-12-19T17:49:52.446Z,100330.31
2018-12-19T17:54:54.970Z,100339.23
2018-12-19T17:59:57.337Z,100335.34
2018-12-19T18:04:59.814Z,100326.05
2018-12-19T18:10:02.194Z,100329.80
2018-12-19T18:15:04.589Z,100327.36
2018-12-19T18:20:07.539Z,100336.65
2018-12-19T18:25:10.277Z,100327.73
2018-12-19T18:30:12.875Z,100323.84
2018-12-19T18:35:15.360Z,100318.13
2018-12-19T18:40:17.778Z,100303.59
2018-12-19T18:45:21.066Z,100301.82
2018-12-19T18:50:23.522Z,100298.34
2018-12-19T18:55:26.121Z,100295.56
2018-12-19T19:00:33.577Z,100286.48
2018-12-19T19:05:36.978Z,100273.72
2018-12-19T19:10:39.683Z,100274.13
2018-12-19T19:15:44.183Z,100281.66
2018-12-19T19:20:46.764Z,100279.48
2018-12-19T19:25:49.159Z,100285.22
2018-12-19T19:30:51.684Z,100289.03
2018-12-19T19:35:54.320Z,100291.81
2018-12-19T19:40:56.862Z,100289.12
2018-12-19T19:45:59.424Z,100287.86
2018-12-19T19:51:01.921Z,100287.05
2018-12-19T19:56:04.466Z,100283.98
2018-12-19T20:01:07.023Z,100287.59
2018-12-19T20:06:09.521Z,100307.32
2018-12-19T20:11:13.014Z,100301.13
2018-12-19T20:16:15.424Z,100304.59
2018-12-19T20:21:17.862Z,100313.45
2018-12-19T20:26:20.275Z,100308.17
2018-12-19T20:31:22.701Z,100304.28
2018-12-19T20:36:25.093Z,100303.62
2018-12-19T20:41:27.686Z,100295.51
2018-12-19T20:46:30.042Z,100278.77
2018-12-19T20:51:32.566Z,100281.22
2018-12-19T20:56:35.161Z,100290.06
2018-12-19T21:01:38.373Z,100285.12
2018-12-19T21:06:40.795Z,100286.97
2018-12-19T21:11:43.631Z,100293.70
2018-12-19T21:16:51.792Z,100286.04
2018-12-19T21:21:54.417Z,100284.45
2018-12-19T21:26:56.985Z,100274.77
2018-12-19T21:31:59.366Z,100282.62
2018-12-19T21:37:02.193Z,100274.72
2018-12-19T21:42:04.832Z,100263.30
2018-12-19T21:47:07.296Z,100260.87
2018-12-19T21:52:10.026Z,100257.85
2018-12-19T21:57:12.387Z,100257.64
2018-12-19T22:02:14.987Z,100248.02
2018-12-19T22:07:17.552Z,100252.38
2018-12-19T22:12:19.998Z,100259.61
2018-12-19T22:17:28.298Z,100258.09
2018-12-19T22:22:30.819Z,100255.14
2018-12-19T22:27:33.628Z,100256.52
2018-12-19T22:32:36.013Z,100253.83
2018-12-19T22:37:39.046Z,100251.52
2018-12-19T22:42:41.500Z,100263.31
2018-12-19T22:47:44.035Z,100254.55
2018-12-19T22:52:46.914Z,100259.14
2018-12-19T22:57:49.285Z,100251.23
2018-12-19T23:02:57.533Z,100253.73
2018-12-19T23:08:00.146Z,100259.60
2018-12-19T23:13:03.086Z,100256.91
2018-12-19T23:18:11.279Z,100257.71
2018-12-19T23:23:13.835Z,100251.98
2018-12-19T23:28:16.423Z,100259.44
2018-12-19T23:33:18.838Z,100254.63
2018-12-19T23:38:21.345Z,100254.16
2018-12-19T23:43:23.697Z,100252.44
2018-12-19T23:48:26.035Z,100244.94
2018-12-19T23:53:28.608Z,100252.90
2018-12-19T23:58:31.073Z,100249.78
